createdAt,value
2019-03-10T00:03:31.830Z,74.73
2019-03-10T00:08:38.626Z,74.96
2019-03-10T00:13:44.898Z,74.73
2019-03-10T00:18:52.163Z,74.65
2019-03-10T00:23:58.938Z,73.95
2019-03-10T00:29:04.158Z,74.33
2019-03-10T00:34:09.309Z,73.48
2019-03-10T00:39:54.596Z,74.38
2019-03-10T00:45:36.152Z,73.15
2019-03-10T00:51:50.213Z,73.30
2019-03-10T00:56:56.201Z,74.14
2019-03-10T01:02:01.727Z,74.86
2019-03-10T01:07:07.601Z,74.53
2019-03-10T01:12:13.022Z,73.96
2019-03-10T01:17:19.624Z,75.20
2019-03-10T01:22:25.080Z,75.23
2019-03-10T01:27:30.238Z,74.31
2019-03-10T01:33:15.494Z,74.83
2019-03-10T01:38:20.640Z,73.98
2019-03-10T01:43:25.836Z,73.04
2019-03-10T01:48:31.375Z,73.13
2019-03-10T01:53:36.531Z,73.66
2019-03-10T01:58:41.677Z,72.50
2019-03-10T02:03:46.941Z,71.59
2019-03-10T02:08:52.087Z,71.13
2019-03-10T02:13:57.607Z,70.42
2019-03-10T02:19:03.104Z,71.14
2019-03-10T02:24:08.692Z,70.93
2019-03-10T02:29:13.833Z,71.32
2019-03-10T02:34:18.988Z,69.68
2019-03-10T02:39:24.462Z,71.46
2019-03-10T02:44:30.308Z,70.59
2019-03-10T02:49:36.542Z,70.81
2019-03-10T02:54:41.707Z,70.10
2019-03-10T02:59:46.973Z,71.07
2019-03-10T03:04:53.105Z,71.00
2019-03-10T03:09:58.238Z,71.19
2019-03-10T03:15:03.388Z,71.00
2019-03-10T03:20:09.658Z,71.05
2019-03-10T03:25:14.807Z,72.19
2019-03-10T03:30:20.372Z,71.91
2019-03-10T03:35:47.090Z,72.15
2019-03-10T03:40:59.332Z,71.88
2019-03-10T03:46:04.978Z,72.17
2019-03-10T03:51:11.673Z,72.61
2019-03-10T03:56:16.834Z,72.24
2019-03-10T04:01:26.212Z,72.61
2019-03-10T04:06:32.878Z,73.33
2019-03-10T04:11:38.021Z,74.55
2019-03-10T04:16:43.397Z,74.12
2019-03-10T04:21:48.549Z,74.25
2019-03-10T04:26:53.705Z,74.77
2019-03-10T04:31:58.852Z,74.87
2019-03-10T04:37:04.334Z,75.28
2019-03-10T04:42:09.496Z,74.70
2019-03-10T04:47:15.056Z,74.96
2019-03-10T04:52:20.520Z,75.38
2019-03-10T04:57:26.420Z,75.93
2019-03-10T05:02:31.609Z,77.16
2019-03-10T05:07:36.791Z,77.85
2019-03-10T05:12:42.236Z,78.37
2019-03-10T05:17:47.401Z,79.14
2019-03-10T05:22:52.583Z,79.56
2019-03-10T05:27:59.675Z,78.76
2019-03-10T05:33:05.907Z,78.72
2019-03-10T05:38:11.091Z,78.06
2019-03-10T05:43:16.357Z,77.65
2019-03-10T05:48:21.827Z,77.37
2019-03-10T05:53:26.997Z,77.36
2019-03-10T05:58:32.433Z,77.42
2019-03-10T06:03:38.059Z,77.82
2019-03-10T06:08:43.778Z,78.57
2019-03-10T06:13:48.940Z,78.93
2019-03-10T06:18:54.111Z,78.98
2019-03-10T06:23:59.644Z,79.68
2019-03-10T06:29:05.874Z,79.01
2019-03-10T06:34:11.038Z,78.91
2019-03-10T06:39:17.669Z,78.87
2019-03-10T06:44:22.846Z,77.89
2019-03-10T06:49:29.092Z,77.96
2019-03-10T06:54:34.625Z,77.39
2019-03-10T06:59:40.488Z,80.25
2019-03-10T07:04:45.696Z,81.85
2019-03-10T07:09:51.280Z,84.44
2019-03-10T07:14:56.846Z,84.04
2019-03-10T07:20:02.401Z,84.95
2019-03-10T07:25:07.707Z,86.48
2019-03-10T07:30:30.879Z,85.93
2019-03-10T07:35:55.415Z,85.67
2019-03-10T07:41:13.506Z,86.47
2019-03-10T07:46:43.610Z,87.36
2019-03-10T07:52:07.781Z,88.09
2019-03-10T07:57:36.458Z,89.08
2019-03-10T08:03:03.964Z,89.02
2019-03-10T08:08:27.046Z,89.64
2019-03-10T08:13:44.988Z,90.61
2019-03-10T08:19:02.950Z,90.29
2019-03-10T08:24:27.549Z,90.88
2019-03-10T08:29:57.870Z,91.08
2019-03-10T08:35:22.253Z,91.70
2019-03-10T08:40:35.735Z,92.54
2019-03-10T08:46:06.515Z,92.82
2019-03-10T08:51:30.982Z,93.10
2019-03-10T08:57:14.867Z,93.23
2019-03-10T09:02:31.449Z,93.09
2019-03-10T09:07:44.502Z,93.16
2019-03-10T09:12:58.518Z,93.12
2019-03-10T09:18:21.366Z,92.71
2019-03-10T09:23:37.882Z,93.00
2019-03-10T09:28:59.893Z,92.42
2019-03-10T09:34:14.374Z,92.59
2019-03-10T09:39:38.526Z,92.91
2019-03-10T09:44:58.617Z,93.14
2019-03-10T09:50:26.448Z,93.24
2019-03-10T09:55:39.519Z,93.68
2019-03-10T10:00:54.679Z,93.25
2019-03-10T10:06:19.006Z,93.32
2019-03-10T10:11:32.621Z,93.30
2019-03-10T10:16:51.705Z,93.27
2019-03-10T10:22:22.864Z,93.61
2019-03-10T10:27:55.037Z,93.49
2019-03-10T10:33:19.226Z,94.06
2019-03-10T10:38:43.399Z,93.86
2019-03-10T10:44:06.177Z,93.88
2019-03-10T10:49:45.649Z,93.69
2019-03-10T10:55:02.509Z,93.50
2019-03-10T11:00:33.433Z,93.19
2019-03-10T11:05:46.612Z,92.83
2019-03-10T11:11:05.298Z,92.54
2019-03-10T11:16:19.463Z,93.08
2019-03-10T11:21:36.503Z,92.05
2019-03-10T11:27:06.833Z,90.67
2019-03-10T11:32:18.725Z,90.08
2019-03-10T11:37:46.837Z,89.58
2019-03-10T11:43:10.099Z,90.82
2019-03-10T11:48:38.708Z,90.84
2019-03-10T11:53:54.083Z,91.16
2019-03-10T11:59:09.745Z,90.82
2019-03-10T12:04:23.763Z,90.66
2019-03-10T12:09:28.945Z,90.67
2019-03-10T12:14:34.572Z,90.84
2019-03-10T12:19:39.837Z,90.97
2019-03-10T12:24:45.164Z,90.45
2019-03-10T12:29:50.321Z,90.95
2019-03-10T12:34:56.773Z,89.83
2019-03-10T12:40:02.372Z,88.99
2019-03-10T12:45:08.650Z,88.76
2019-03-10T12:50:14.240Z,88.07
2019-03-10T12:55:20.587Z,85.37
2019-03-10T13:00:26.496Z,81.24
2019-03-10T13:05:32.164Z,82.05
2019-03-10T13:10:37.622Z,81.65
2019-03-10T13:15:43.843Z,79.54
2019-03-10T13:20:50.102Z,77.78
2019-03-10T13:25:56.187Z,76.35
2019-03-10T13:31:01.554Z,79.01
2019-03-10T13:36:07.247Z,81.15
2019-03-10T13:41:12.566Z,81.45
2019-03-10T13:46:18.210Z,81.75
2019-03-10T13:51:23.476Z,83.95
2019-03-10T13:56:28.715Z,82.78
2019-03-10T14:01:34.062Z,84.00
2019-03-10T14:06:39.731Z,87.08
2019-03-10T14:11:45.265Z,90.27
2019-03-10T14:16:50.949Z,93.03
2019-03-10T14:21:57.079Z,94.12
2019-03-10T14:27:02.641Z,89.28
2019-03-10T14:32:08.219Z,89.19
2019-03-10T14:37:14.078Z,88.33
2019-03-10T14:42:19.254Z,88.55
2019-03-10T14:47:24.890Z,86.24
2019-03-10T14:52:31.044Z,85.01
2019-03-10T14:57:36.505Z,83.62
2019-03-10T15:02:42.347Z,83.08
2019-03-10T15:07:48.813Z,84.96
2019-03-10T15:12:55.263Z,83.29
2019-03-10T15:18:02.832Z,84.56
2019-03-10T15:23:07.461Z,83.63
2019-03-10T15:28:12.726Z,78.28
2019-03-10T15:33:18.306Z,75.43
2019-03-10T15:38:23.548Z,75.05
2019-03-10T15:43:28.804Z,75.79
2019-03-10T15:48:35.056Z,75.21
2019-03-10T15:53:40.694Z,76.96
2019-03-10T15:58:46.286Z,75.29
2019-03-10T16:03:51.705Z,74.34
2019-03-10T16:08:56.961Z,76.59
2019-03-10T16:14:04.145Z,73.04
2019-03-10T16:19:09.767Z,71.98
2019-03-10T16:24:15.345Z,69.82
2019-03-10T16:29:20.714Z,67.23
2019-03-10T16:34:26.044Z,63.40
2019-03-10T16:39:31.306Z,63.56
2019-03-10T16:44:36.975Z,62.35
2019-03-10T16:49:42.471Z,63.05
2019-03-10T16:54:47.647Z,61.63
2019-03-10T16:59:52.890Z,57.76
2019-03-10T17:04:58.181Z,58.42
2019-03-10T17:10:03.374Z,59.90
2019-03-10T17:15:10.607Z,59.72
2019-03-10T17:20:16.329Z,56.87
2019-03-10T17:25:21.582Z,56.92
2019-03-10T17:30:28.960Z,57.63
2019-03-10T17:35:34.215Z,56.99
2019-03-10T17:40:39.482Z,58.42
2019-03-10T17:45:44.728Z,58.80
2019-03-10T17:50:50.157Z,58.42
2019-03-10T17:55:55.723Z,58.45
2019-03-10T18:01:02.530Z,57.53
2019-03-10T18:06:07.809Z,56.52
2019-03-10T18:11:13.060Z,55.92
2019-03-10T18:16:19.221Z,53.69
2019-03-10T18:21:24.470Z,55.82
2019-03-10T18:26:30.323Z,55.17
2019-03-10T18:31:35.649Z,56.23
2019-03-10T18:36:40.823Z,56.73
2019-03-10T18:41:46.124Z,54.37
2019-03-10T18:46:51.291Z,55.66
2019-03-10T18:51:56.856Z,57.00
2019-03-10T18:57:02.440Z,57.67
2019-03-10T19:02:08.724Z,59.12
2019-03-10T19:07:13.913Z,59.02
2019-03-10T19:12:19.079Z,55.65
2019-03-10T19:17:25.067Z,55.61
2019-03-10T19:22:30.400Z,55.61
2019-03-10T19:27:36.010Z,56.27
2019-03-10T19:32:43.395Z,54.94
2019-03-10T19:37:48.628Z,55.64
2019-03-10T19:42:56.806Z,56.41
2019-03-10T19:48:02.533Z,56.07
2019-03-10T19:53:08.035Z,60.53
2019-03-10T19:58:14.231Z,62.54
2019-03-10T20:03:19.437Z,65.89
2019-03-10T20:08:24.631Z,67.47
2019-03-10T20:13:30.185Z,68.80
2019-03-10T20:18:36.076Z,69.96
2019-03-10T20:23:41.591Z,71.52
2019-03-10T20:28:46.757Z,72.51
2019-03-10T20:33:52.607Z,73.41
2019-03-10T20:38:58.511Z,74.74
2019-03-10T20:44:03.700Z,75.87
2019-03-10T20:49:09.280Z,75.98
2019-03-10T20:54:14.582Z,76.08
2019-03-10T20:59:19.757Z,76.10
2019-03-10T21:04:25.360Z,76.54
2019-03-10T21:09:30.901Z,77.14
2019-03-10T21:14:36.068Z,77.12
2019-03-10T21:19:41.231Z,77.26
2019-03-10T21:24:46.424Z,77.51
2019-03-10T21:29:51.588Z,77.09
2019-03-10T21:34:56.926Z,77.73
2019-03-10T21:40:02.408Z,77.88
2019-03-10T21:45:09.409Z,78.02
2019-03-10T21:50:14.860Z,78.05
2019-03-10T21:55:20.023Z,78.39
2019-03-10T22:00:25.512Z,78.05
2019-03-10T22:05:31.068Z,78.30
2019-03-10T22:10:36.701Z,79.26
2019-03-10T22:15:42.522Z,79.03
2019-03-10T22:20:47.704Z,79.63
2019-03-10T22:25:53.225Z,79.44
2019-03-10T22:30:58.739Z,80.30
2019-03-10T22:36:05.397Z,81.23
2019-03-10T22:41:10.574Z,81.31
2019-03-10T22:46:16.058Z,81.68
2019-03-10T22:51:21.227Z,83.46
2019-03-10T22:56:26.586Z,83.26
2019-03-10T23:01:31.755Z,84.33
2019-03-10T23:06:36.946Z,83.68
2019-03-10T23:11:42.476Z,84.43
2019-03-10T23:16:47.634Z,85.11
2019-03-10T23:21:53.096Z,85.05
2019-03-10T23:26:58.390Z,85.16
2019-03-10T23:32:03.564Z,84.29
2019-03-10T23:37:09.081Z,83.40
2019-03-10T23:42:14.261Z,81.44
2019-03-10T23:47:20.389Z,80.07
2019-03-10T23:52:25.963Z,77.57
2019-03-10T23:57:31.125Z,77.16
